Time,TemperatureF,DewpointF,PressureIn,WindDirection,WindDirectionDegrees,WindSpeedMPH,WindSpeedGustMPH,Humidity,HourlyPrecipIn,Conditions,Clouds,dailyrainin,SolarRadiationWatts/m^2,SoftwareType,DateUTC
2013-02-11 00:00:00,32.0,14.0,-100.00,North,1,1.0,19.0,46,0.00,,,0.00,0.000000,,2013-02-11 08:00:00,
2013-02-11 00:32:00,32.0,14.0,-100.00,North,1,1.0,19.0,46,0.00,,,0.00,0.000000,,2013-02-11 08:32:00,
2013-02-11 00:42:00,32.0,14.0,-100.00,North,1,1.0,19.0,46,0.00,,,0.00,0.000000,,2013-02-11 08:42:00,
2013-02-11 00:52:00,32.0,14.0,-100.00,North,1,1.0,19.0,46,0.00,,,0.00,0.000000,,2013-02-11 08:52:00,
2013-02-11 01:00:00,31.0,12.0,-100.00,ENE,69,3.0,16.0,45,0.00,,,0.00,0.000000,,2013-02-11 09:00:00,
2013-02-11 01:32:00,31.0,12.0,-100.00,ENE,69,3.0,16.0,45,0.00,,,0.00,0.000000,,2013-02-11 09:32:00,
2013-02-11 01:42:00,31.0,12.0,-100.00,ENE,69,3.0,16.0,45,0.00,,,0.00,0.000000,,2013-02-11 09:42:00,
2013-02-11 01:52:00,31.0,12.0,-100.00,ENE,69,3.0,16.0,45,0.00,,,0.00,0.000000,,2013-02-11 09:52:00,
2013-02-11 02:00:00,31.0,11.0,-100.00,NNE,18,4.0,6.0,43,0.00,,,0.00,0.000000,,2013-02-11 10:00:00,
2013-02-11 02:32:00,31.0,11.0,-100.00,NNE,18,4.0,6.0,43,0.00,,,0.00,0.000000,,2013-02-11 10:32:00,
2013-02-11 02:42:00,31.0,11.0,-100.00,NNE,18,4.0,6.0,43,0.00,,,0.00,0.000000,,2013-02-11 10:42:00,
2013-02-11 02:52:00,31.0,11.0,-100.00,NNE,18,4.0,6.0,43,0.00,,,0.00,0.000000,,2013-02-11 10:52:00,
2013-02-11 03:00:00,31.0,10.0,-100.00,NNE,26,7.0,11.0,41,0.00,,,0.00,0.000000,,2013-02-11 11:00:00,
2013-02-11 03:32:00,31.0,10.0,-100.00,NNE,26,7.0,11.0,41,0.00,,,0.00,0.000000,,2013-02-11 11:32:00,
2013-02-11 03:42:00,31.0,10.0,-100.00,NNE,26,7.0,11.0,41,0.00,,,0.00,0.000000,,2013-02-11 11:42:00,
2013-02-11 03:52:00,31.0,10.0,-100.00,NNE,26,7.0,11.0,41,0.00,,,0.00,0.000000,,2013-02-11 11:52:00,
2013-02-11 04:00:00,30.0,10.0,-100.00,North,9,4.0,14.0,42,0.00,,,-99.99,0.000000,,2013-02-11 12:00:00,
2013-02-11 04:32:00,30.0,10.0,-100.00,North,9,4.0,14.0,42,0.00,,,-99.99,0.000000,,2013-02-11 12:32:00,
2013-02-11 04:42:00,30.0,10.0,-100.00,North,9,4.0,14.0,42,0.00,,,-99.99,0.000000,,2013-02-11 12:42:00,
2013-02-11 04:52:00,30.0,10.0,-100.00,North,9,4.0,14.0,42,0.00,,,-99.99,0.000000,,2013-02-11 12:52:00,
2013-02-11 05:00:00,30.0,10.0,-100.00,NNE,24,6.0,15.0,43,0.00,,,-99.99,0.000000,,2013-02-11 13:00:00,
2013-02-11 05:33:00,30.0,10.0,-100.00,NNE,24,6.0,15.0,43,0.00,,,-99.99,0.000000,,2013-02-11 13:33:00,
2013-02-11 05:42:00,30.0,10.0,-100.00,NNE,24,6.0,15.0,43,0.00,,,-99.99,0.000000,,2013-02-11 13:42:00,
2013-02-11 05:52:00,30.0,10.0,-100.00,NNE,24,6.0,15.0,43,0.00,,,-99.99,0.000000,,2013-02-11 13:52:00,
2013-02-11 06:00:00,29.0,10.0,-100.00,NNE,25,3.0,13.0,44,0.00,,,-99.99,0.000000,,2013-02-11 14:00:00,
2013-02-11 06:33:00,29.0,10.0,-100.00,NNE,25,3.0,13.0,44,0.00,,,-99.99,0.000000,,2013-02-11 14:33:00,
2013-02-11 06:42:00,29.0,10.0,-100.00,NNE,25,3.0,13.0,44,0.00,,,-99.99,0.000000,,2013-02-11 14:42:00,
2013-02-11 06:52:00,29.0,10.0,-100.00,NNE,25,3.0,13.0,44,0.00,,,-99.99,0.000000,,2013-02-11 14:52:00,
2013-02-11 07:00:00,28.0,7.0,-100.00,North,351,2.0,9.0,41,0.00,,,0.00,0.000000,,2013-02-11 15:00:00,
2013-02-11 07:32:00,28.0,7.0,-100.00,North,351,2.0,9.0,41,0.00,,,0.00,0.000000,,2013-02-11 15:32:00,
2013-02-11 07:42:00,28.0,7.0,-100.00,North,351,2.0,9.0,41,0.00,,,0.00,0.000000,,2013-02-11 15:42:00,
2013-02-11 07:52:00,28.0,7.0,-100.00,North,351,2.0,9.0,41,0.00,,,0.00,0.000000,,2013-02-11 15:52:00,
2013-02-11 08:00:00,28.0,1.0,-100.00,NNW,346,2.0,14.0,31,0.00,,,0.00,2.000000,,2013-02-11 16:00:00,
2013-02-11 08:32:00,28.0,1.0,-100.00,NNW,346,2.0,14.0,31,0.00,,,0.00,2.000000,,2013-02-11 16:32:00,
2013-02-11 08:42:00,28.0,1.0,-100.00,NNW,346,2.0,14.0,31,0.00,,,0.00,2.000000,,2013-02-11 16:42:00,
2013-02-11 08:52:00,28.0,1.0,-100.00,NNW,346,2.0,14.0,31,0.00,,,0.00,2.000000,,2013-02-11 16:52:00,
2013-02-11 09:00:00,30.0,-1.0,-100.00,North,9,4.0,12.0,26,0.00,,,-99.99,27.000000,,2013-02-11 17:00:00,
2013-02-11 09:32:00,30.0,-1.0,-100.00,North,9,4.0,12.0,26,0.00,,,-99.99,27.000000,,2013-02-11 17:32:00,
2013-02-11 09:42:00,30.0,-1.0,-100.00,North,9,4.0,12.0,26,0.00,,,-99.99,27.000000,,2013-02-11 17:42:00,
2013-02-11 09:52:00,30.0,-1.0,-100.00,North,9,4.0,12.0,26,0.00,,,-99.99,27.000000,,2013-02-11 17:52:00,
2013-02-11 10:00:00,36.0,-1.0,-100.00,NNE,15,3.0,15.0,20,0.00,,,0.00,218.000000,,2013-02-11 18:00:00,
2013-02-11 10:22:00,36.0,-1.0,-100.00,NNE,15,3.0,15.0,20,0.00,,,0.00,218.000000,,2013-02-11 18:22:00,
2013-02-11 10:32:00,36.0,-1.0,-100.00,NNE,15,3.0,15.0,20,0.00,,,0.00,218.000000,,2013-02-11 18:32:00,
2013-02-11 10:42:00,36.0,-1.0,-100.00,NNE,15,3.0,15.0,20,0.00,,,0.00,218.000000,,2013-02-11 18:42:00,
2013-02-11 10:53:00,36.0,-1.0,-100.00,NNE,15,3.0,15.0,20,0.00,,,0.00,218.000000,,2013-02-11 18:53:00,
2013-02-11 11:00:00,39.0,1.0,-100.00,NE,35,4.0,15.0,20,0.00,,,0.00,580.000000,,2013-02-11 19:00:00,
2013-02-11 11:22:00,39.0,1.0,-100.00,NE,35,4.0,15.0,20,0.00,,,0.00,580.000000,,2013-02-11 19:22:00,
2013-02-11 11:32:00,39.0,1.0,-100.00,NE,35,4.0,15.0,20,0.00,,,0.00,580.000000,,2013-02-11 19:32:00,
2013-02-11 11:42:00,39.0,1.0,-100.00,NE,35,4.0,15.0,20,0.00,,,0.00,580.000000,,2013-02-11 19:42:00,
2013-02-11 11:51:00,39.0,1.0,-100.00,NE,35,4.0,15.0,20,0.00,,,0.00,580.000000,,2013-02-11 19:51:00,
2013-02-11 12:00:00,41.0,0.0,-100.00,WNW,303,2.0,10.0,17,0.00,,,0.00,725.000000,,2013-02-11 20:00:00,
2013-02-11 12:32:00,41.0,0.0,-100.00,WNW,303,2.0,10.0,17,0.00,,,0.00,725.000000,,2013-02-11 20:32:00,
2013-02-11 12:42:00,41.0,0.0,-100.00,WNW,303,2.0,10.0,17,0.00,,,0.00,725.000000,,2013-02-11 20:42:00,
2013-02-11 12:52:00,41.0,0.0,-100.00,WNW,303,2.0,10.0,17,0.00,,,0.00,725.000000,,2013-02-11 20:52:00,
2013-02-11 13:00:00,46.0,2.0,-100.00,North,0,3.0,10.0,16,0.00,,,0.00,805.000000,,2013-02-11 21:00:00,
2013-02-11 13:32:00,46.0,2.0,-100.00,North,0,3.0,10.0,16,0.00,,,0.00,805.000000,,2013-02-11 21:32:00,
2013-02-11 13:42:00,46.0,2.0,-100.00,North,0,3.0,10.0,16,0.00,,,0.00,805.000000,,2013-02-11 21:42:00,
2013-02-11 13:52:00,46.0,2.0,-100.00,North,0,3.0,10.0,16,0.00,,,0.00,805.000000,,2013-02-11 21:52:00,
2013-02-11 14:00:00,45.0,6.0,-100.00,NNW,338,2.0,9.0,20,0.00,,,0.00,813.000000,,2013-02-11 22:00:00,
2013-02-11 14:32:00,45.0,6.0,-100.00,NNW,338,2.0,9.0,20,0.00,,,0.00,813.000000,,2013-02-11 22:32:00,
2013-02-11 14:42:00,45.0,6.0,-100.00,NNW,338,2.0,9.0,20,0.00,,,0.00,813.000000,,2013-02-11 22:42:00,
2013-02-11 14:52:00,45.0,6.0,-100.00,NNW,338,2.0,9.0,20,0.00,,,0.00,813.000000,,2013-02-11 22:52:00,
2013-02-11 15:00:00,48.0,9.0,-100.00,WNW,283,3.0,8.0,20,0.00,,,0.00,748.000000,,2013-02-11 23:00:00,
2013-02-11 15:22:00,48.0,9.0,-100.00,WNW,283,3.0,8.0,20,0.00,,,0.00,748.000000,,2013-02-11 23:22:00,
2013-02-11 15:32:00,48.0,9.0,-100.00,WNW,283,3.0,8.0,20,0.00,,,0.00,748.000000,,2013-02-11 23:32:00,
2013-02-11 15:42:00,48.0,9.0,-100.00,WNW,283,3.0,8.0,20,0.00,,,0.00,748.000000,,2013-02-11 23:42:00,
2013-02-11 15:52:00,48.0,9.0,-100.00,WNW,283,3.0,8.0,20,0.00,,,0.00,748.000000,,2013-02-11 23:52:00,
2013-02-11 16:00:00,49.0,11.0,-100.00,NE,37,2.0,8.0,21,0.00,,,0.00,616.000000,,2013-02-12 00:00:00,
2013-02-11 16:32:00,49.0,11.0,-100.00,NE,37,2.0,8.0,21,0.00,,,0.00,616.000000,,2013-02-12 00:32:00,
2013-02-11 16:42:00,49.0,11.0,-100.00,NE,37,2.0,8.0,21,0.00,,,0.00,616.000000,,2013-02-12 00:42:00,
2013-02-11 16:52:00,49.0,11.0,-100.00,NE,37,2.0,8.0,21,0.00,,,0.00,616.000000,,2013-02-12 00:52:00,
2013-02-11 17:00:00,44.0,2.0,-100.00,SSE,166,3.0,11.0,17,-99.99,,,0.00,431.000000,,2013-02-12 01:00:00,
2013-02-11 17:32:00,44.0,2.0,-100.00,SSE,166,3.0,11.0,17,-99.99,,,0.00,431.000000,,2013-02-12 01:32:00,
2013-02-11 17:42:00,44.0,2.0,-100.00,SSE,166,3.0,11.0,17,-99.99,,,0.00,431.000000,,2013-02-12 01:42:00,
2013-02-11 17:52:00,44.0,2.0,-100.00,SSE,166,3.0,11.0,17,-99.99,,,0.00,431.000000,,2013-02-12 01:52:00,
2013-02-11 18:00:00,40.0,3.0,-100.00,South,189,3.0,9.0,21,0.00,,,0.00,210.000000,,2013-02-12 02:00:00,
2013-02-11 18:22:00,40.0,3.0,-100.00,South,189,3.0,9.0,21,0.00,,,0.00,210.000000,,2013-02-12 02:22:00,
2013-02-11 18:32:00,40.0,3.0,-100.00,South,189,3.0,9.0,21,0.00,,,0.00,210.000000,,2013-02-12 02:32:00,
2013-02-11 18:42:00,40.0,3.0,-100.00,South,189,3.0,9.0,21,0.00,,,0.00,210.000000,,2013-02-12 02:42:00,
2013-02-11 18:52:00,40.0,3.0,-100.00,South,189,3.0,9.0,21,0.00,,,0.00,210.000000,,2013-02-12 02:52:00,
2013-02-11 19:00:00,34.0,1.0,-100.00,SW,222,1.0,8.0,24,0.00,,,0.00,8.000000,,2013-02-12 03:00:00,
2013-02-11 19:32:00,34.0,1.0,-100.00,SW,222,1.0,8.0,24,0.00,,,0.00,8.000000,,2013-02-12 03:32:00,
2013-02-11 19:42:00,34.0,1.0,-100.00,SW,222,1.0,8.0,24,0.00,,,0.00,8.000000,,2013-02-12 03:42:00,
2013-02-11 19:52:00,34.0,1.0,-100.00,SW,222,1.0,8.0,24,0.00,,,0.00,8.000000,,2013-02-12 03:52:00,
2013-02-11 20:00:00,32.0,3.0,-100.00,WSW,240,3.0,9.0,28,0.00,,,0.00,0.000000,,2013-02-12 04:00:00,
2013-02-11 20:21:00,32.0,3.0,-100.00,WSW,240,3.0,9.0,28,0.00,,,0.00,0.000000,,2013-02-12 04:21:00,
2013-02-11 20:32:00,32.0,3.0,-100.00,WSW,240,3.0,9.0,28,0.00,,,0.00,0.000000,,2013-02-12 04:32:00,
2013-02-11 20:42:00,32.0,3.0,-100.00,WSW,240,3.0,9.0,28,0.00,,,0.00,0.000000,,2013-02-12 04:42:00,
2013-02-11 20:52:00,32.0,3.0,-100.00,WSW,240,3.0,9.0,28,0.00,,,0.00,0.000000,,2013-02-12 04:52:00,
2013-02-11 21:00:00,32.0,15.0,-100.00,West,269,0.0,7.0,49,0.00,,,0.00,0.000000,,2013-02-12 05:00:00,
2013-02-11 21:32:00,32.0,15.0,-100.00,West,269,0.0,7.0,49,0.00,,,0.00,0.000000,,2013-02-12 05:32:00,
2013-02-11 21:42:00,32.0,15.0,-100.00,West,269,0.0,7.0,49,0.00,,,0.00,0.000000,,2013-02-12 05:42:00,
2013-02-11 21:52:00,32.0,15.0,-100.00,West,269,0.0,7.0,49,0.00,,,0.00,0.000000,,2013-02-12 05:52:00,
2013-02-11 22:00:00,32.0,17.0,-100.00,WNW,302,0.0,6.0,53,0.00,,,0.00,0.000000,,2013-02-12 06:00:00,
2013-02-11 22:32:00,32.0,17.0,-100.00,WNW,302,0.0,6.0,53,0.00,,,0.00,0.000000,,2013-02-12 06:32:00,
2013-02-11 22:42:00,32.0,17.0,-100.00,WNW,302,0.0,6.0,53,0.00,,,0.00,0.000000,,2013-02-12 06:42:00,
2013-02-11 22:52:00,32.0,17.0,-100.00,WNW,302,0.0,6.0,53,0.00,,,0.00,0.000000,,2013-02-12 06:52:00,
2013-02-11 23:00:00,31.0,18.0,-100.00,West,259,2.0,3.0,59,0.00,,,-99.99,0.000000,,2013-02-12 07:00:00,
2013-02-11 23:32:00,31.0,18.0,-100.00,West,259,2.0,3.0,59,0.00,,,-99.99,0.000000,,2013-02-12 07:32:00,
2013-02-11 23:42:00,31.0,18.0,-100.00,West,259,2.0,3.0,59,0.00,,,-99.99,0.000000,,2013-02-12 07:42:00,
2013-02-11 23:52:00,31.0,18.0,-100.00,West,259,2.0,3.0,59,0.00,,,-99.99,0.000000,,2013-02-12 07:52:00,